createdAt,value
2022-11-02T00:03:21.894Z,101498.38
2022-11-02T00:10:56.840Z,101497.22
2022-11-02T00:18:31.984Z,101499.78
2022-11-02T00:26:07.081Z,101494.25
2022-11-02T00:33:40.833Z,101501.22
2022-11-02T00:41:16.150Z,101493.50
2022-11-02T00:48:49.928Z,101505.59
2022-11-02T00:56:24.999Z,101509.69
2022-11-02T01:03:59.026Z,101496.69
2022-11-02T01:11:34.032Z,101505.69
2022-11-02T01:19:09.320Z,101503.97
2022-11-02T01:26:44.387Z,101507.00
2022-11-02T01:34:18.447Z,101503.19
2022-11-02T01:41:55.374Z,101485.94
2022-11-02T01:49:32.535Z,101478.75
2022-11-02T01:57:09.793Z,101484.91
2022-11-02T02:04:45.003Z,101478.91
2022-11-02T02:12:21.189Z,101476.78
2022-11-02T02:19:59.495Z,101474.84
2022-11-02T02:27:43.938Z,101467.34
2022-11-02T02:35:25.528Z,101462.00
2022-11-02T02:43:06.723Z,101470.00
2022-11-02T02:50:45.136Z,101448.72
2022-11-02T02:58:23.747Z,101456.41
2022-11-02T03:06:05.180Z,101457.22
2022-11-02T03:13:49.743Z,101461.47
2022-11-02T03:21:29.439Z,101459.53
2022-11-02T03:29:09.901Z,101456.00
2022-11-02T03:36:49.246Z,101462.00
2022-11-02T03:44:27.748Z,101456.56
2022-11-02T03:52:06.043Z,101457.56
2022-11-02T03:59:41.160Z,101460.50
2022-11-02T04:07:15.155Z,101456.28
2022-11-02T04:14:50.169Z,101454.63
2022-11-02T04:22:42.639Z,101452.03
2022-11-02T04:30:19.965Z,101444.78
2022-11-02T04:38:11.341Z,101464.38
2022-11-02T04:45:46.312Z,101462.47
2022-11-02T04:53:19.968Z,101458.09
2022-11-02T05:00:55.089Z,101459.88
2022-11-02T05:08:29.112Z,101455.44
2022-11-02T05:16:04.273Z,101460.63
2022-11-02T05:23:38.674Z,101455.19
2022-11-02T05:31:13.664Z,101450.78
2022-11-02T05:38:47.513Z,101452.28
2022-11-02T05:46:22.551Z,101463.78
2022-11-02T05:53:56.368Z,101448.66
2022-11-02T06:01:31.633Z,101451.31
2022-11-02T06:09:07.244Z,101457.50
2022-11-02T06:16:42.549Z,101452.19
2022-11-02T06:24:17.145Z,101448.59
2022-11-02T06:31:52.136Z,101467.25
2022-11-02T06:39:25.833Z,101462.06
2022-11-02T06:47:00.863Z,101480.78
2022-11-02T06:54:34.577Z,101481.16
2022-11-02T07:02:10.071Z,101487.69
2022-11-02T07:09:43.772Z,101481.84
2022-11-02T07:17:19.010Z,101488.44
2022-11-02T07:24:53.208Z,101477.09
2022-11-02T07:32:28.177Z,101493.13
2022-11-02T07:40:01.868Z,101497.03
2022-11-02T07:47:42.796Z,101489.28
2022-11-02T07:55:18.788Z,101494.41
2022-11-02T08:02:57.216Z,101504.09
2022-11-02T08:10:36.939Z,101498.59
2022-11-02T08:18:16.748Z,101486.72
2022-11-02T08:25:52.114Z,101500.94
2022-11-02T08:33:27.137Z,101490.34
2022-11-02T08:41:00.813Z,101499.44
2022-11-02T08:48:35.822Z,101497.88
2022-11-02T08:56:09.484Z,101493.63
2022-11-02T09:03:44.671Z,101500.28
2022-11-02T09:11:18.321Z,101496.75
2022-11-02T09:18:53.491Z,101497.66
2022-11-02T09:26:27.955Z,101500.25
2022-11-02T09:34:03.293Z,101500.06
2022-11-02T09:41:42.465Z,101510.56
2022-11-02T09:49:20.777Z,101509.22
2022-11-02T09:56:59.033Z,101519.44
2022-11-02T10:04:50.485Z,101520.69
2022-11-02T10:12:31.228Z,101512.06
2022-11-02T10:20:16.068Z,101515.94
2022-11-02T10:27:52.821Z,101520.91
2022-11-02T10:35:51.306Z,101513.09
2022-11-02T10:43:51.790Z,101526.81
2022-11-02T10:51:27.357Z,101526.06
2022-11-02T10:59:05.338Z,101528.03
2022-11-02T11:06:43.482Z,101532.81
2022-11-02T11:22:27.432Z,101540.22
2022-11-02T11:30:01.149Z,101549.25
2022-11-02T11:37:36.188Z,101549.31
2022-11-02T11:45:18.532Z,101542.09
2022-11-02T11:53:11.051Z,101551.88
2022-11-02T12:00:45.244Z,101541.13
2022-11-02T12:08:35.708Z,101537.56
2022-11-02T12:16:16.206Z,101535.00
2022-11-02T12:24:10.915Z,101531.53
2022-11-02T12:31:47.049Z,101540.44
2022-11-02T12:39:32.832Z,101544.88
2022-11-02T12:47:17.863Z,101547.56
2022-11-02T12:54:56.726Z,101556.38
2022-11-02T13:02:34.375Z,101558.97
2022-11-02T13:10:18.947Z,101555.47
2022-11-02T13:17:55.686Z,101565.41
2022-11-02T13:25:35.430Z,101571.78
2022-11-02T13:33:16.942Z,101566.47
2022-11-02T13:41:03.543Z,101560.25
2022-11-02T13:48:48.883Z,101556.72
2022-11-02T13:56:26.808Z,101563.72
2022-11-02T14:04:06.395Z,101556.47
2022-11-02T14:11:49.608Z,101567.28
2022-11-02T14:19:25.274Z,101563.94
2022-11-02T14:27:01.455Z,101569.38
2022-11-02T14:34:57.708Z,101581.75
2022-11-02T14:42:47.847Z,101600.25
2022-11-02T14:50:22.255Z,101618.06
2022-11-02T14:58:04.265Z,101618.88
2022-11-02T15:05:41.816Z,101626.78
2022-11-02T15:13:37.955Z,101634.66
2022-11-02T15:21:28.668Z,101632.63
2022-11-02T15:29:06.632Z,101645.84
2022-11-02T15:36:43.938Z,101652.81
2022-11-02T15:44:42.513Z,101666.00
2022-11-02T15:52:24.772Z,101669.31
2022-11-02T16:00:30.364Z,101659.16
2022-11-02T16:08:10.772Z,101678.53
2022-11-02T16:15:48.720Z,101684.50
2022-11-02T16:23:26.110Z,101691.44
2022-11-02T16:31:18.936Z,101690.31
2022-11-02T16:38:59.495Z,101704.31
2022-11-02T16:46:43.360Z,101709.31
2022-11-02T16:54:30.664Z,101707.22
2022-11-02T17:02:06.742Z,101722.09
2022-11-02T17:09:41.120Z,101727.22
2022-11-02T17:17:36.474Z,101734.94
2022-11-02T17:25:14.903Z,101736.16
2022-11-02T17:32:50.339Z,101740.06
2022-11-02T17:40:24.342Z,101748.47
2022-11-02T17:48:00.788Z,101757.63
2022-11-02T17:55:37.571Z,101765.94
2022-11-02T18:03:17.003Z,101769.22
2022-11-02T18:10:53.120Z,101767.75
2022-11-02T18:18:28.511Z,101777.13
2022-11-02T18:26:02.225Z,101776.72
2022-11-02T18:33:37.272Z,101774.44
2022-11-02T18:41:25.540Z,101775.72
2022-11-02T18:49:02.113Z,101772.50
2022-11-02T18:56:36.113Z,101766.59
2022-11-02T19:04:16.986Z,101770.66
2022-11-02T19:11:54.570Z,101775.56
2022-11-02T19:19:29.783Z,101775.81
2022-11-02T19:27:03.936Z,101786.84
2022-11-02T19:34:39.378Z,101786.38
2022-11-02T19:42:13.150Z,101788.63
2022-11-02T19:49:48.146Z,101795.19
2022-11-02T19:57:21.861Z,101786.47
2022-11-02T20:04:57.280Z,101793.09
2022-11-02T20:12:33.978Z,101811.06
2022-11-02T20:20:09.986Z,101807.88
2022-11-02T20:27:46.316Z,101811.09
2022-11-02T20:35:25.544Z,101800.75
2022-11-02T20:43:00.240Z,101818.16
2022-11-02T20:50:36.372Z,101823.84
2022-11-02T20:58:10.079Z,101817.22
2022-11-02T21:05:45.420Z,101817.66
2022-11-02T21:13:36.600Z,101824.38
2022-11-02T21:21:13.764Z,101829.22
2022-11-02T21:28:47.621Z,101823.34
2022-11-02T21:36:22.848Z,101837.91
2022-11-02T21:43:56.986Z,101831.47
2022-11-02T21:51:32.083Z,101833.81
2022-11-02T21:59:06.321Z,101822.91
2022-11-02T22:06:42.336Z,101822.63
2022-11-02T22:14:16.010Z,101812.50
2022-11-02T22:21:51.157Z,101819.31
2022-11-02T22:29:25.469Z,101819.03
2022-11-02T22:37:20.416Z,101818.72
2022-11-02T22:44:55.221Z,101811.19
2022-11-02T22:52:30.111Z,101804.69
2022-11-02T23:00:05.594Z,101797.25
2022-11-02T23:07:40.559Z,101794.31
2022-11-02T23:15:14.569Z,101788.75
2022-11-02T23:23:07.620Z,101797.28
2022-11-02T23:30:59.665Z,101796.09
2022-11-02T23:38:48.623Z,101793.00
2022-11-02T23:46:22.434Z,101782.16
2022-11-02T23:54:20.556Z,101781.84
